sensor_id;sensor_type;location;lat;lon;timestamp;pressure;altitude;pressure_sealevel;temperature;humidity
49759;BME280;35654;46.080;11.118;2023-04-06T00:02:01;99617.69;;;7.71;47.45
49759;BME280;35654;46.080;11.118;2023-04-06T00:04:28;99625.59;;;7.67;47.56
49759;BME280;35654;46.080;11.118;2023-04-06T00:06:54;99614.13;;;7.65;47.72
49759;BME280;35654;46.080;11.118;2023-04-06T00:09:20;99618.50;;;7.56;48.40
49759;BME280;35654;46.080;11.118;2023-04-06T00:11:47;99625.03;;;7.60;48.19
49759;BME280;35654;46.080;11.118;2023-04-06T00:14:14;99616.59;;;7.67;47.28
49759;BME280;35654;46.080;11.118;2023-04-06T00:16:43;99613.34;;;7.70;47.04
49759;BME280;35654;46.080;11.118;2023-04-06T00:19:09;99619.88;;;7.69;46.97
49759;BME280;35654;46.080;11.118;2023-04-06T00:21:35;99611.97;;;7.62;47.45
49759;BME280;35654;46.080;11.118;2023-04-06T00:24:01;99623.94;;;7.66;47.27
49759;BME280;35654;46.080;11.118;2023-04-06T00:26:30;99624.53;;;7.73;46.50
49759;BME280;35654;46.080;11.118;2023-04-06T00:28:56;99618.25;;;7.78;45.75
49759;BME280;35654;46.080;11.118;2023-04-06T00:31:25;99620.97;;;7.78;45.60
49759;BME280;35654;46.080;11.118;2023-04-06T00:33:51;99614.69;;;7.77;46.11
49759;BME280;35654;46.080;11.118;2023-04-06T00:36:16;99614.41;;;7.69;46.42
49759;BME280;35654;46.080;11.118;2023-04-06T00:38:41;99609.25;;;7.62;46.40
49759;BME280;35654;46.080;11.118;2023-04-06T00:41:08;99609.50;;;7.55;45.27
49759;BME280;35654;46.080;11.118;2023-04-06T00:43:34;99615.72;;;7.51;45.31
49759;BME280;35654;46.080;11.118;2023-04-06T00:46:01;99610.03;;;7.47;45.87
49759;BME280;35654;46.080;11.118;2023-04-06T00:48:27;99612.47;;;7.54;45.80
49759;BME280;35654;46.080;11.118;2023-04-06T00:50:57;99610.56;;;7.54;45.83
49759;BME280;35654;46.080;11.118;2023-04-06T00:53:23;99609.75;;;7.54;45.99
49759;BME280;35654;46.080;11.118;2023-04-06T00:55:50;99605.13;;;7.54;46.07
49759;BME280;35654;46.080;11.118;2023-04-06T00:58:16;99608.38;;;7.51;46.24
49759;BME280;35654;46.080;11.118;2023-04-06T01:00:42;99613.28;;;7.39;46.91
49759;BME280;35654;46.080;11.118;2023-04-06T01:03:09;99611.63;;;7.38;46.25
49759;BME280;35654;46.080;11.118;2023-04-06T01:05:34;99612.44;;;7.34;45.51
49759;BME280;35654;46.080;11.118;2023-04-06T01:08:06;99611.06;;;7.36;46.24
49759;BME280;35654;46.080;11.118;2023-04-06T01:10:33;99604.00;;;7.40;45.45
49759;BME280;35654;46.080;11.118;2023-04-06T01:13:00;99607.28;;;7.42;45.51
49759;BME280;35654;46.080;11.118;2023-04-06T01:15:26;99614.06;;;7.40;45.23
49759;BME280;35654;46.080;11.118;2023-04-06T01:17:54;99608.06;;;7.38;45.45
49759;BME280;35654;46.080;11.118;2023-04-06T01:20:21;99604.53;;;7.37;45.06
49759;BME280;35654;46.080;11.118;2023-04-06T01:22:47;99599.34;;;7.31;44.92
49759;BME280;35654;46.080;11.118;2023-04-06T01:25:14;99601.25;;;7.25;44.76
49759;BME280;35654;46.080;11.118;2023-04-06T01:27:41;99605.84;;;7.20;46.13
49759;BME280;35654;46.080;11.118;2023-04-06T01:30:08;99601.97;;;7.06;47.72
49759;BME280;35654;46.080;11.118;2023-04-06T01:32:35;99601.41;;;6.98;48.04
49759;BME280;35654;46.080;11.118;2023-04-06T01:35:02;99602.44;;;6.87;48.87
49759;BME280;35654;46.080;11.118;2023-04-06T01:37:28;99604.28;;;6.77;49.77
49759;BME280;35654;46.080;11.118;2023-04-06T01:39:57;99596.16;;;6.87;49.64
49759;BME280;35654;46.080;11.118;2023-04-06T01:42:24;99603.81;;;6.90;49.35
49759;BME280;35654;46.080;11.118;2023-04-06T01:44:50;99603.81;;;6.90;49.77
49759;BME280;35654;46.080;11.118;2023-04-06T01:47:17;99603.00;;;6.89;49.70
49759;BME280;35654;46.080;11.118;2023-04-06T01:49:43;99598.09;;;6.91;49.25
49759;BME280;35654;46.080;11.118;2023-04-06T01:52:11;99612.78;;;6.90;49.76
49759;BME280;35654;46.080;11.118;2023-04-06T01:54:38;99602.44;;;6.87;49.78
49759;BME280;35654;46.080;11.118;2023-04-06T01:57:04;99602.41;;;6.82;49.85
49759;BME280;35654;46.080;11.118;2023-04-06T01:59:31;99611.31;;;6.68;50.66
49759;BME280;35654;46.080;11.118;2023-04-06T02:01:57;99604.50;;;6.65;49.90
49759;BME280;35654;46.080;11.118;2023-04-06T02:04:23;99604.78;;;6.64;50.42
49759;BME280;35654;46.080;11.118;2023-04-06T02:06:48;99604.19;;;6.62;50.29
49759;BME280;35654;46.080;11.118;2023-04-06T02:09:14;99603.91;;;6.53;50.87
49759;BME280;35654;46.080;11.118;2023-04-06T02:11:41;99609.34;;;6.53;51.08
49759;BME280;35654;46.080;11.118;2023-04-06T02:14:08;99609.28;;;6.48;50.91
49759;BME280;35654;46.080;11.118;2023-04-06T02:16:34;99613.94;;;6.48;50.98
49759;BME280;35654;46.080;11.118;2023-04-06T02:19:02;99603.06;;;6.53;50.42
49759;BME280;35654;46.080;11.118;2023-04-06T02:21:28;99614.19;;;6.51;51.05
49759;BME280;35654;46.080;11.118;2023-04-06T02:23:55;99616.16;;;6.56;51.14
49759;BME280;35654;46.080;11.118;2023-04-06T02:26:21;99619.94;;;6.55;50.73
49759;BME280;35654;46.080;11.118;2023-04-06T02:28:48;99610.94;;;6.49;50.78
49759;BME280;35654;46.080;11.118;2023-04-06T02:31:15;99615.53;;;6.43;51.06
49759;BME280;35654;46.080;11.118;2023-04-06T02:33:41;99621.78;;;6.44;51.13
49759;BME280;35654;46.080;11.118;2023-04-06T02:36:07;99618.50;;;6.42;49.87
49759;BME280;35654;46.080;11.118;2023-04-06T02:38:34;99621.75;;;6.39;50.09
49759;BME280;35654;46.080;11.118;2023-04-06T02:41:01;99622.28;;;6.36;49.76
49759;BME280;35654;46.080;11.118;2023-04-06T02:43:27;99615.63;;;6.17;49.85
49759;BME280;35654;46.080;11.118;2023-04-06T02:45:54;99623.94;;;6.05;49.82
49759;BME280;35654;46.080;11.118;2023-04-06T02:48:20;99624.19;;;6.04;50.03
49759;BME280;35654;46.080;11.118;2023-04-06T02:50:47;99620.94;;;6.07;49.38
49759;BME280;35654;46.080;11.118;2023-04-06T02:53:13;99628.78;;;6.03;49.58
49759;BME280;35654;46.080;11.118;2023-04-06T02:55:39;99634.97;;;5.94;50.39
49759;BME280;35654;46.080;11.118;2023-04-06T02:58:05;99624.31;;;5.87;50.30
49759;BME280;35654;46.080;11.118;2023-04-06T03:00:31;99629.19;;;5.85;50.37
49759;BME280;35654;46.080;11.118;2023-04-06T03:02:58;99634.13;;;5.88;50.58
49759;BME280;35654;46.080;11.118;2023-04-06T03:05:25;99636.03;;;5.93;50.42
49759;BME280;35654;46.080;11.118;2023-04-06T03:07:50;99635.53;;;5.96;49.71
49759;BME280;35654;46.080;11.118;2023-04-06T03:10:16;99635.53;;;5.96;49.59
49759;BME280;35654;46.080;11.118;2023-04-06T03:12:43;99639.88;;;5.92;49.40
49759;BME280;35654;46.080;11.118;2023-04-06T03:15:09;99628.91;;;5.86;49.10
49759;BME280;35654;46.080;11.118;2023-04-06T03:17:36;99628.34;;;5.84;49.42
49759;BME280;35654;46.080;11.118;2023-04-06T03:20:03;99633.22;;;5.82;48.92
49759;BME280;35654;46.080;11.118;2023-04-06T03:22:30;99638.59;;;5.77;49.15
49759;BME280;35654;46.080;11.118;2023-04-06T03:24:56;99638.53;;;5.72;49.43
49759;BME280;35654;46.080;11.118;2023-04-06T03:27:22;99629.50;;;5.67;49.52
49759;BME280;35654;46.080;11.118;2023-04-06T03:29:49;99640.09;;;5.63;49.72
49759;BME280;35654;46.080;11.118;2023-04-06T03:32:16;99638.72;;;5.61;49.63
49759;BME280;35654;46.080;11.118;2023-04-06T03:34:42;99646.28;;;5.59;49.72
49759;BME280;35654;46.080;11.118;2023-04-06T03:37:08;99650.28;;;5.51;49.96
49759;BME280;35654;46.080;11.118;2023-04-06T03:39:36;99646.19;;;5.49;49.90
49759;BME280;35654;46.080;11.118;2023-04-06T03:42:02;99650.47;;;5.45;50.67
49759;BME280;35654;46.080;11.118;2023-04-06T03:44:27;99642.81;;;5.42;50.99
49759;BME280;35654;46.080;11.118;2023-04-06T03:46:54;99652.25;;;5.34;51.43
49759;BME280;35654;46.080;11.118;2023-04-06T03:49:21;99652.09;;;5.19;52.42
49759;BME280;35654;46.080;11.118;2023-04-06T03:51:48;99650.63;;;5.11;52.79
49759;BME280;35654;46.080;11.118;2023-04-06T03:54:14;99648.66;;;5.07;53.14
49759;BME280;35654;46.080;11.118;2023-04-06T03:56:40;99664.50;;;5.15;52.96
49759;BME280;35654;46.080;11.118;2023-04-06T03:59:06;99655.91;;;5.23;52.27
49759;BME280;35654;46.080;11.118;2023-04-06T04:01:33;99649.38;;;5.19;52.13
49759;BME280;35654;46.080;11.118;2023-04-06T04:03:58;99654.22;;;5.17;51.89
49759;BME280;35654;46.080;11.118;2023-04-06T04:06:25;99651.94;;;5.09;52.38
49759;BME280;35654;46.080;11.118;2023-04-06T04:08:51;99663.63;;;5.09;52.30
49759;BME280;35654;46.080;11.118;2023-04-06T04:11:17;99655.53;;;5.14;52.18
49759;BME280;35654;46.080;11.118;2023-04-06T04:13:44;99659.63;;;5.17;51.78
49759;BME280;35654;46.080;11.118;2023-04-06T04:16:11;99658.25;;;5.14;52.57
49759;BME280;35654;46.080;11.118;2023-04-06T04:18:37;99662.28;;;5.12;51.99
49759;BME280;35654;46.080;11.118;2023-04-06T04:21:03;99660.41;;;5.12;51.47
49759;BME280;35654;46.080;11.118;2023-04-06T04:23:30;99662.56;;;5.10;51.30
49759;BME280;35654;46.080;11.118;2023-04-06T04:25:57;99661.19;;;5.08;51.66
49759;BME280;35654;46.080;11.118;2023-04-06T04:28:23;99669.56;;;5.06;51.54
49759;BME280;35654;46.080;11.118;2023-04-06T04:30:49;99671.16;;;5.02;51.85
49759;BME280;35654;46.080;11.118;2023-04-06T04:33:16;99667.84;;;5.00;52.07
49759;BME280;35654;46.080;11.118;2023-04-06T04:35:42;99671.50;;;4.89;52.97
49759;BME280;35654;46.080;11.118;2023-04-06T04:38:09;99673.00;;;4.80;53.69
49759;BME280;35654;46.080;11.118;2023-04-06T04:40:35;99674.50;;;4.71;54.33
49759;BME280;35654;46.080;11.118;2023-04-06T04:43:02;99673.25;;;4.79;54.30
49759;BME280;35654;46.080;11.118;2023-04-06T04:45:28;99670.09;;;4.87;54.39
49759;BME280;35654;46.080;11.118;2023-04-06T04:47:55;99677.25;;;4.93;54.72
49759;BME280;35654;46.080;11.118;2023-04-06T04:50:22;99672.44;;;5.00;54.54
49759;BME280;35654;46.080;11.118;2023-04-06T04:52:48;99675.47;;;5.03;54.82
49759;BME280;35654;46.080;11.118;2023-04-06T04:55:15;99675.25;;;5.05;54.67
49759;BME280;35654;46.080;11.118;2023-04-06T04:57:41;99679.34;;;5.07;54.57
49759;BME280;35654;46.080;11.118;2023-04-06T05:00:07;99675.03;;;5.11;54.57
49759;BME280;35654;46.080;11.118;2023-04-06T05:02:34;99674.53;;;5.14;54.28
49759;BME280;35654;46.080;11.118;2023-04-06T05:05:01;99681.56;;;5.10;54.50
49759;BME280;35654;46.080;11.118;2023-04-06T05:07:27;99674.47;;;5.09;54.57
49759;BME280;35654;46.080;11.118;2023-04-06T05:09:54;99676.91;;;4.89;55.63
49759;BME280;35654;46.080;11.118;2023-04-06T05:12:20;99686.75;;;4.74;56.98
49759;BME280;35654;46.080;11.118;2023-04-06T05:14:47;99687.16;;;4.65;57.78
49759;BME280;35654;46.080;11.118;2023-04-06T05:17:14;99690.44;;;4.67;57.06
49759;BME280;35654;46.080;11.118;2023-04-06T05:19:40;99690.09;;;4.81;56.82
49759;BME280;35654;46.080;11.118;2023-04-06T05:22:07;99690.00;;;4.92;56.34
49759;BME280;35654;46.080;11.118;2023-04-06T05:24:33;99678.53;;;5.07;55.85
49759;BME280;35654;46.080;11.118;2023-04-06T05:27:01;99682.44;;;5.16;55.66
49759;BME280;35654;46.080;11.118;2023-04-06T05:29:27;99686.28;;;5.20;56.03
49759;BME280;35654;46.080;11.118;2023-04-06T05:31:53;99691.03;;;5.29;56.14
49759;BME280;35654;46.080;11.118;2023-04-06T05:34:19;99686.72;;;5.34;56.26
49759;BME280;35654;46.080;11.118;2023-04-06T05:36:46;99690.66;;;5.21;57.26
49759;BME280;35654;46.080;11.118;2023-04-06T05:39:13;99690.94;;;5.03;57.92
49759;BME280;35654;46.080;11.118;2023-04-06T05:41:39;99694.41;;;4.98;57.08
49759;BME280;35654;46.080;11.118;2023-04-06T05:44:06;99696.25;;;5.14;56.22
49759;BME280;35654;46.080;11.118;2023-04-06T05:46:32;99692.91;;;5.29;54.05
49759;BME280;35654;46.080;11.118;2023-04-06T05:48:59;99700.63;;;5.37;53.33
49759;BME280;35654;46.080;11.118;2023-04-06T05:51:25;99698.91;;;5.53;52.12
49759;BME280;35654;46.080;11.118;2023-04-06T05:53:53;99691.94;;;5.62;51.22
49759;BME280;35654;46.080;11.118;2023-04-06T05:56:18;99694.53;;;5.73;50.74
49759;BME280;35654;46.080;11.118;2023-04-06T05:58:45;99699.00;;;5.84;50.13
49759;BME280;35654;46.080;11.118;2023-04-06T06:01:10;99706.94;;;5.86;51.85
49759;BME280;35654;46.080;11.118;2023-04-06T06:03:37;99719.03;;;5.78;51.07
49759;BME280;35654;46.080;11.118;2023-04-06T06:06:04;99714.19;;;5.80;51.13
49759;BME280;35654;46.080;11.118;2023-04-06T06:08:30;99713.53;;;5.73;51.61
49759;BME280;35654;46.080;11.118;2023-04-06T06:10:57;99719.19;;;5.89;50.78
49759;BME280;35654;46.080;11.118;2023-04-06T06:13:24;99712.19;;;5.98;50.21
49759;BME280;35654;46.080;11.118;2023-04-06T06:15:50;99714.88;;;5.93;50.60
49759;BME280;35654;46.080;11.118;2023-04-06T06:18:17;99721.50;;;5.80;50.58
49759;BME280;35654;46.080;11.118;2023-04-06T06:20:44;99719.28;;;5.99;50.76
49759;BME280;35654;46.080;11.118;2023-04-06T06:23:10;99723.22;;;6.13;50.35
49759;BME280;35654;46.080;11.118;2023-04-06T06:25:36;99720.47;;;6.08;50.67
49759;BME280;35654;46.080;11.118;2023-04-06T06:28:01;99716.09;;;6.07;50.75
49759;BME280;35654;46.080;11.118;2023-04-06T06:30:26;99724.28;;;6.12;50.01
49759;BME280;35654;46.080;11.118;2023-04-06T06:32:52;99720.78;;;6.11;50.12
49759;BME280;35654;46.080;11.118;2023-04-06T06:35:17;99721.09;;;6.20;49.84
49759;BME280;35654;46.080;11.118;2023-04-06T06:37:42;99711.91;;;6.26;49.38
49759;BME280;35654;46.080;11.118;2023-04-06T06:40:11;99704.84;;;6.25;50.00
49759;BME280;35654;46.080;11.118;2023-04-06T06:42:38;99713.25;;;6.23;50.37
49759;BME280;35654;46.080;11.118;2023-04-06T06:45:06;99702.66;;;6.22;50.42
49759;BME280;35654;46.080;11.118;2023-04-06T06:47:33;99708.22;;;6.37;49.86
49759;BME280;35654;46.080;11.118;2023-04-06T06:49:58;99704.91;;;6.30;50.14
49759;BME280;35654;46.080;11.118;2023-04-06T06:52:23;99708.69;;;6.29;50.73
49759;BME280;35654;46.080;11.118;2023-04-06T06:54:49;99703.41;;;6.49;50.34
49759;BME280;35654;46.080;11.118;2023-04-06T06:57:14;99695.97;;;6.71;49.23
49759;BME280;35654;46.080;11.118;2023-04-06T06:59:40;99703.16;;;6.92;48.38
49759;BME280;35654;46.080;11.118;2023-04-06T07:02:07;99699.06;;;6.90;47.64
49759;BME280;35654;46.080;11.118;2023-04-06T07:04:32;99698.56;;;6.98;47.59
49759;BME280;35654;46.080;11.118;2023-04-06T07:06:59;99698.31;;;6.99;47.04
49759;BME280;35654;46.080;11.118;2023-04-06T07:09:25;99697.19;;;6.90;46.81
49759;BME280;35654;46.080;11.118;2023-04-06T07:11:53;99691.72;;;6.90;46.93
49759;BME280;35654;46.080;11.118;2023-04-06T07:14:19;99688.75;;;6.92;47.26
49759;BME280;35654;46.080;11.118;2023-04-06T07:16:46;99695.59;;;6.99;46.90
49759;BME280;35654;46.080;11.118;2023-04-06T07:19:12;99686.19;;;7.17;46.57
49759;BME280;35654;46.080;11.118;2023-04-06T07:21:39;99681.47;;;7.02;47.02
49759;BME280;35654;46.080;11.118;2023-04-06T07:24:06;99686.97;;;7.18;46.93
49759;BME280;35654;46.080;11.118;2023-04-06T07:26:32;99677.00;;;7.38;46.46
49759;BME280;35654;46.080;11.118;2023-04-06T07:28:59;99681.13;;;7.51;46.64
49759;BME280;35654;46.080;11.118;2023-04-06T07:31:25;99679.53;;;7.65;46.21
49759;BME280;35654;46.080;11.118;2023-04-06T07:33:51;99686.09;;;7.64;46.39
49759;BME280;35654;46.080;11.118;2023-04-06T07:36:18;99683.59;;;7.57;47.11
49759;BME280;35654;46.080;11.118;2023-04-06T07:38:43;99682.22;;;7.45;47.15
49759;BME280;35654;46.080;11.118;2023-04-06T07:41:12;99680.03;;;7.42;47.28
49759;BME280;35654;46.080;11.118;2023-04-06T07:43:38;99675.72;;;7.56;47.29
49759;BME280;35654;46.080;11.118;2023-04-06T07:46:05;99670.34;;;7.81;46.50
49759;BME280;35654;46.080;11.118;2023-04-06T07:48:32;99668.72;;;8.15;46.11
49759;BME280;35654;46.080;11.118;2023-04-06T07:51:02;99669.59;;;8.31;45.44
49759;BME280;35654;46.080;11.118;2023-04-06T07:53:29;99658.13;;;8.34;45.63
49759;BME280;35654;46.080;11.118;2023-04-06T07:55:56;99669.31;;;8.53;44.84
49759;BME280;35654;46.080;11.118;2023-04-06T07:58:21;99660.31;;;8.62;44.60
49759;BME280;35654;46.080;11.118;2023-04-06T08:00:48;99659.50;;;8.57;44.49
49759;BME280;35654;46.080;11.118;2023-04-06T08:03:14;99660.84;;;8.64;44.49
49759;BME280;35654;46.080;11.118;2023-04-06T08:05:42;99659.94;;;8.99;43.28
49759;BME280;35654;46.080;11.118;2023-04-06T08:08:09;99657.44;;;9.13;42.97
49759;BME280;35654;46.080;11.118;2023-04-06T08:10:36;99646.19;;;9.29;42.31
49759;BME280;35654;46.080;11.118;2023-04-06T08:13:02;99647.75;;;9.46;41.35
49759;BME280;35654;46.080;11.118;2023-04-06T08:15:28;99647.94;;;9.59;41.43
49759;BME280;35654;46.080;11.118;2023-04-06T08:17:55;99629.88;;;9.68;40.85
49759;BME280;35654;46.080;11.118;2023-04-06T08:20:23;99633.56;;;9.87;41.07
49759;BME280;35654;46.080;11.118;2023-04-06T08:22:50;99626.19;;;9.88;41.15
49759;BME280;35654;46.080;11.118;2023-04-06T08:25:17;99630.00;;;9.87;40.73
49759;BME280;35654;46.080;11.118;2023-04-06T08:27:43;99619.56;;;9.94;40.06
49759;BME280;35654;46.080;11.118;2023-04-06T08:30:09;99621.38;;;9.70;39.84
49759;BME280;35654;46.080;11.118;2023-04-06T08:32:36;99618.75;;;9.50;39.50
49759;BME280;35654;46.080;11.118;2023-04-06T08:35:03;99616.47;;;9.67;39.54
49759;BME280;35654;46.080;11.118;2023-04-06T08:37:29;99606.81;;;9.79;39.84
49759;BME280;35654;46.080;11.118;2023-04-06T08:39:57;99612.53;;;9.83;39.48
49759;BME280;35654;46.080;11.118;2023-04-06T08:42:24;99614.78;;;9.76;38.90
49759;BME280;35654;46.080;11.118;2023-04-06T08:44:51;99610.72;;;9.63;39.15
49759;BME280;35654;46.080;11.118;2023-04-06T08:47:18;99612.50;;;9.88;38.81
49759;BME280;35654;46.080;11.118;2023-04-06T08:49:45;99604.00;;;10.28;38.74
49759;BME280;35654;46.080;11.118;2023-04-06T08:52:12;99599.09;;;10.54;37.88
49759;BME280;35654;46.080;11.118;2023-04-06T08:54:39;99601.69;;;10.40;38.00
49759;BME280;35654;46.080;11.118;2023-04-06T08:57:06;99596.19;;;10.45;38.13
49759;BME280;35654;46.080;11.118;2023-04-06T08:59:33;99591.22;;;10.19;38.38
49759;BME280;35654;46.080;11.118;2023-04-06T09:02:00;99587.19;;;10.40;38.22
49759;BME280;35654;46.080;11.118;2023-04-06T09:04:29;99587.09;;;10.50;38.04
49759;BME280;35654;46.080;11.118;2023-04-06T09:06:55;99587.00;;;10.31;38.13
49759;BME280;35654;46.080;11.118;2023-04-06T09:09:22;99584.53;;;10.59;38.14
49759;BME280;35654;46.080;11.118;2023-04-06T09:11:51;99574.59;;;10.91;37.37
49759;BME280;35654;46.080;11.118;2023-04-06T09:14:32;99574.56;;;11.15;37.26
49759;BME280;35654;46.080;11.118;2023-04-06T09:16:59;99568.16;;;11.25;36.24
49759;BME280;35654;46.080;11.118;2023-04-06T09:19:26;99556.97;;;11.40;35.68
49759;BME280;35654;46.080;11.118;2023-04-06T09:22:14;99555.47;;;11.29;35.81
49759;BME280;35654;46.080;11.118;2023-04-06T09:24:45;99556.22;;;11.34;35.33
49759;BME280;35654;46.080;11.118;2023-04-06T09:27:12;99552.06;;;11.37;36.06
49759;BME280;35654;46.080;11.118;2023-04-06T09:29:39;99553.53;;;11.72;34.67
49759;BME280;35654;46.080;11.118;2023-04-06T09:32:07;99538.44;;;11.32;35.83
49759;BME280;35654;46.080;11.118;2023-04-06T09:34:34;99541.72;;;11.52;35.07
49759;BME280;35654;46.080;11.118;2023-04-06T09:37:00;99535.78;;;11.83;34.25
49759;BME280;35654;46.080;11.118;2023-04-06T09:39:41;99538.66;;;11.91;34.79
49759;BME280;35654;46.080;11.118;2023-04-06T09:42:07;99527.97;;;12.22;33.37
49759;BME280;35654;46.080;11.118;2023-04-06T09:44:34;99524.34;;;12.54;32.73
49759;BME280;35654;46.080;11.118;2023-04-06T09:47:01;99523.94;;;12.47;32.14
49759;BME280;35654;46.080;11.118;2023-04-06T09:49:31;99524.06;;;12.55;32.11
49759;BME280;35654;46.080;11.118;2023-04-06T09:52:05;99519.78;;;12.36;32.10
49759;BME280;35654;46.080;11.118;2023-04-06T09:54:32;99515.72;;;12.47;31.90
49759;BME280;35654;46.080;11.118;2023-04-06T10:02:32;99490.34;;;13.04;30.04
49759;BME280;35654;46.080;11.118;2023-04-06T10:05:05;99479.19;;;13.14;29.73
49759;BME280;35654;46.080;11.118;2023-04-06T10:07:33;99475.81;;;13.17;29.30
49759;BME280;35654;46.080;11.118;2023-04-06T10:10:00;99468.78;;;13.11;28.80
49759;BME280;35654;46.080;11.118;2023-04-06T10:12:28;99473.50;;;13.33;28.61
49759;BME280;35654;46.080;11.118;2023-04-06T10:14:55;99460.66;;;13.42;28.28
49759;BME280;35654;46.080;11.118;2023-04-06T10:17:22;99457.72;;;13.61;28.23
49759;BME280;35654;46.080;11.118;2023-04-06T10:25:29;99447.13;;;13.98;27.81
49759;BME280;35654;46.080;11.118;2023-04-06T10:28:07;99445.22;;;14.08;26.59
49759;BME280;35654;46.080;11.118;2023-04-06T10:30:34;99443.53;;;14.20;25.83
49759;BME280;35654;46.080;11.118;2023-04-06T10:33:12;99429.84;;;14.37;26.14
49759;BME280;35654;46.080;11.118;2023-04-06T10:35:38;99424.31;;;14.85;25.48
49759;BME280;35654;46.080;11.118;2023-04-06T10:38:05;99435.19;;;14.82;23.48
49759;BME280;35654;46.080;11.118;2023-04-06T10:40:32;99431.47;;;14.08;23.75
49759;BME280;35654;46.080;11.118;2023-04-06T10:43:11;99426.78;;;14.39;23.33
49759;BME280;35654;46.080;11.118;2023-04-06T10:45:39;99421.59;;;15.20;22.46
49759;BME280;35654;46.080;11.118;2023-04-06T10:48:17;99422.66;;;16.42;19.52
49759;BME280;35654;46.080;11.118;2023-04-06T10:50:47;99408.50;;;19.30;16.95
49759;BME280;35654;46.080;11.118;2023-04-06T10:53:24;99408.25;;;21.51;15.11
49759;BME280;35654;46.080;11.118;2023-04-06T10:55:51;99404.03;;;23.42;13.69
49759;BME280;35654;46.080;11.118;2023-04-06T10:58:18;99397.88;;;23.03;14.09
49759;BME280;35654;46.080;11.118;2023-04-06T11:00:48;99395.22;;;25.63;13.12
49759;BME280;35654;46.080;11.118;2023-04-06T11:03:15;99388.16;;;26.22;12.58
49759;BME280;35654;46.080;11.118;2023-04-06T11:05:45;99377.25;;;25.92;12.68
49759;BME280;35654;46.080;11.118;2023-04-06T11:08:30;99378.81;;;25.75;12.40
49759;BME280;35654;46.080;11.118;2023-04-06T11:13:38;99365.31;;;26.83;11.92
49759;BME280;35654;46.080;11.118;2023-04-06T11:16:05;99366.38;;;24.90;13.10
49759;BME280;35654;46.080;11.118;2023-04-06T11:18:32;99362.06;;;26.07;12.44
49759;BME280;35654;46.080;11.118;2023-04-06T11:20:58;99343.56;;;27.19;11.81
49759;BME280;35654;46.080;11.118;2023-04-06T11:23:25;99347.88;;;27.55;11.50
49759;BME280;35654;46.080;11.118;2023-04-06T11:25:52;99336.00;;;27.02;11.72
49759;BME280;35654;46.080;11.118;2023-04-06T11:28:19;99325.88;;;27.22;11.69
49759;BME280;35654;46.080;11.118;2023-04-06T11:30:45;99330.53;;;28.33;10.86
49759;BME280;35654;46.080;11.118;2023-04-06T11:33:19;99322.66;;;28.10;10.71
49759;BME280;35654;46.080;11.118;2023-04-06T11:35:46;99320.00;;;26.28;11.94
49759;BME280;35654;46.080;11.118;2023-04-06T11:38:13;99309.03;;;27.11;11.54
49759;BME280;35654;46.080;11.118;2023-04-06T11:40:39;99303.97;;;27.72;11.03
49759;BME280;35654;46.080;11.118;2023-04-06T11:43:10;99299.22;;;28.68;10.62
49759;BME280;35654;46.080;11.118;2023-04-06T11:45:46;99292.50;;;28.55;11.05
49759;BME280;35654;46.080;11.118;2023-04-06T11:48:19;99291.97;;;28.23;10.76
49759;BME280;35654;46.080;11.118;2023-04-06T11:50:46;99296.34;;;26.36;11.89
49759;BME280;35654;46.080;11.118;2023-04-06T11:53:13;99287.50;;;26.45;12.02
49759;BME280;35654;46.080;11.118;2023-04-06T11:55:40;99285.50;;;26.28;11.84
49759;BME280;35654;46.080;11.118;2023-04-06T11:58:06;99277.09;;;27.64;11.29
49759;BME280;35654;46.080;11.118;2023-04-06T12:00:33;99288.50;;;27.98;11.56
49759;BME280;35654;46.080;11.118;2023-04-06T12:03:00;99274.38;;;27.39;11.59
49759;BME280;35654;46.080;11.118;2023-04-06T12:05:27;99268.84;;;27.25;11.87
49759;BME280;35654;46.080;11.118;2023-04-06T12:07:54;99275.84;;;27.72;11.37
49759;BME280;35654;46.080;11.118;2023-04-06T12:10:21;99265.03;;;26.66;11.54
49759;BME280;35654;46.080;11.118;2023-04-06T12:12:48;99261.78;;;26.82;11.81
49759;BME280;35654;46.080;11.118;2023-04-06T12:15:15;99257.78;;;26.79;11.87
49759;BME280;35654;46.080;11.118;2023-04-06T12:17:42;99259.44;;;26.38;12.14
49759;BME280;35654;46.080;11.118;2023-04-06T12:20:08;99251.41;;;26.12;12.49
49759;BME280;35654;46.080;11.118;2023-04-06T12:22:35;99253.19;;;27.93;11.62
49759;BME280;35654;46.080;11.118;2023-04-06T12:25:02;99246.75;;;27.89;11.56
49759;BME280;35654;46.080;11.118;2023-04-06T12:27:29;99236.94;;;29.27;11.11
49759;BME280;35654;46.080;11.118;2023-04-06T12:29:56;99234.22;;;30.50;10.17
49759;BME280;35654;46.080;11.118;2023-04-06T12:32:23;99233.91;;;31.27;9.59
49759;BME280;35654;46.080;11.118;2023-04-06T12:34:50;99233.81;;;30.71;9.75
49759;BME280;35654;46.080;11.118;2023-04-06T12:37:17;99230.59;;;31.12;9.41
49759;BME280;35654;46.080;11.118;2023-04-06T12:39:43;99224.13;;;31.11;9.39
49759;BME280;35654;46.080;11.118;2023-04-06T12:42:11;99217.19;;;28.97;10.80
49759;BME280;35654;46.080;11.118;2023-04-06T12:44:39;99217.34;;;26.02;13.64
49759;BME280;35654;46.080;11.118;2023-04-06T12:47:05;99218.94;;;26.35;13.34
49759;BME280;35654;46.080;11.118;2023-04-06T12:49:33;99220.84;;;26.77;13.69
49759;BME280;35654;46.080;11.118;2023-04-06T12:52:00;99213.63;;;26.69;13.26
49759;BME280;35654;46.080;11.118;2023-04-06T12:54:28;99208.44;;;26.60;13.00
49759;BME280;35654;46.080;11.118;2023-04-06T12:56:54;99209.69;;;26.38;13.35
49759;BME280;35654;46.080;11.118;2023-04-06T12:59:22;99212.53;;;25.89;13.80
49759;BME280;35654;46.080;11.118;2023-04-06T13:01:51;99198.44;;;25.36;14.00
49759;BME280;35654;46.080;11.118;2023-04-06T13:04:19;99198.50;;;25.57;14.48
49759;BME280;35654;46.080;11.118;2023-04-06T13:06:45;99192.09;;;25.85;14.23
49759;BME280;35654;46.080;11.118;2023-04-06T13:09:11;99197.66;;;24.46;15.31
49759;BME280;35654;46.080;11.118;2023-04-06T13:11:38;99199.28;;;23.96;15.88